createdAt,value
2018-07-06T00:01:07.117Z,0
2018-07-06T00:02:07.656Z,0
2018-07-06T00:03:08.220Z,0
2018-07-06T00:04:08.784Z,0
2018-07-06T00:05:09.350Z,0
2018-07-06T00:06:09.897Z,0
2018-07-06T00:07:10.449Z,0
2018-07-06T00:08:11.001Z,0
2018-07-06T00:09:11.557Z,0
2018-07-06T00:10:12.115Z,0
2018-07-06T00:11:12.670Z,0
2018-07-06T00:12:13.225Z,0
2018-07-06T00:13:13.780Z,0
2018-07-06T00:14:14.337Z,0
2018-07-06T00:15:14.885Z,0
2018-07-06T00:16:15.437Z,0
2018-07-06T00:17:15.997Z,0
2018-07-06T00:18:16.552Z,0
2018-07-06T00:19:17.109Z,0
2018-07-06T00:20:17.660Z,0
2018-07-06T00:21:18.215Z,0
2018-07-06T00:22:18.775Z,0
2018-07-06T00:23:19.327Z,0
2018-07-06T00:24:19.880Z,0
2018-07-06T00:25:20.445Z,0
2018-07-06T00:26:20.991Z,0
2018-07-06T00:27:21.546Z,0
2018-07-06T00:28:22.099Z,0
2018-07-06T00:29:22.656Z,0
2018-07-06T00:30:23.212Z,0
2018-07-06T00:31:23.774Z,0
2018-07-06T00:32:24.327Z,0
2018-07-06T00:33:24.871Z,0
2018-07-06T00:34:25.424Z,0
2018-07-06T00:35:25.977Z,0
2018-07-06T00:36:26.533Z,0
2018-07-06T00:37:27.091Z,0
2018-07-06T00:38:27.649Z,0
2018-07-06T00:39:28.201Z,0
2018-07-06T00:40:28.751Z,0
2018-07-06T00:41:29.304Z,0
2018-07-06T00:42:29.862Z,0
2018-07-06T00:43:30.415Z,0
2018-07-06T00:44:30.973Z,0
2018-07-06T00:45:31.527Z,0
2018-07-06T00:46:32.081Z,0
2018-07-06T00:47:32.636Z,0
2018-07-06T00:48:33.190Z,0
2018-07-06T00:49:33.743Z,0
2018-07-06T00:50:34.299Z,0
2018-07-06T00:51:34.852Z,0
2018-07-06T00:52:35.407Z,0
2018-07-06T00:53:35.960Z,0
2018-07-06T00:54:36.523Z,0
2018-07-06T00:55:37.075Z,0
2018-07-06T00:56:37.629Z,0
2018-07-06T00:57:38.172Z,0
2018-07-06T00:58:38.731Z,0
2018-07-06T00:59:39.286Z,0
2018-07-06T01:00:39.844Z,0
2018-07-06T01:01:40.420Z,0
2018-07-06T01:02:40.941Z,0
2018-07-06T01:03:41.498Z,0
2018-07-06T01:04:42.049Z,0
2018-07-06T01:05:42.605Z,0
2018-07-06T01:06:43.156Z,0
2018-07-06T01:07:43.715Z,0
2018-07-06T01:08:44.266Z,0
2018-07-06T01:09:44.821Z,0
2018-07-06T01:10:45.374Z,0
2018-07-06T01:11:45.931Z,0
2018-07-06T01:12:46.483Z,0
2018-07-06T01:13:47.037Z,0
2018-07-06T01:14:47.592Z,0
2018-07-06T01:15:48.154Z,0
2018-07-06T01:16:48.698Z,0
2018-07-06T01:17:49.254Z,0
2018-07-06T01:18:49.813Z,0
2018-07-06T01:19:50.366Z,0
2018-07-06T01:20:50.917Z,0
2018-07-06T01:21:51.472Z,0
2018-07-06T01:22:52.017Z,0
2018-07-06T01:23:52.563Z,0
2018-07-06T01:24:53.116Z,0
2018-07-06T01:25:53.672Z,0
2018-07-06T01:26:54.220Z,0
2018-07-06T01:27:54.762Z,0
2018-07-06T01:28:55.313Z,0
2018-07-06T01:29:55.868Z,0
2018-07-06T01:30:56.422Z,0
2018-07-06T01:31:56.976Z,0
2018-07-06T01:32:57.528Z,0
2018-07-06T01:33:58.082Z,0
2018-07-06T01:34:58.640Z,0
2018-07-06T01:35:59.189Z,0
2018-07-06T01:36:59.744Z,0
2018-07-06T01:38:00.301Z,0
2018-07-06T01:39:00.861Z,0
2018-07-06T01:40:01.412Z,0
2018-07-06T01:41:01.967Z,0
2018-07-06T01:42:02.523Z,0
2018-07-06T01:43:03.076Z,0
2018-07-06T01:44:03.634Z,0
2018-07-06T01:45:04.189Z,0
2018-07-06T01:46:04.743Z,0
2018-07-06T01:47:05.291Z,0
2018-07-06T01:48:05.850Z,0
2018-07-06T01:49:06.404Z,0
2018-07-06T01:50:06.951Z,0
2018-07-06T01:51:07.509Z,0
2018-07-06T01:52:08.060Z,0
2018-07-06T01:53:08.618Z,0
2018-07-06T01:54:09.168Z,0
2018-07-06T01:55:09.718Z,0
2018-07-06T01:56:10.274Z,0
2018-07-06T01:57:10.828Z,0
2018-07-06T01:58:11.380Z,0
2018-07-06T01:59:11.933Z,0
2018-07-06T02:00:12.489Z,0
2018-07-06T02:01:13.043Z,0
2018-07-06T02:02:13.597Z,0
2018-07-06T02:03:14.144Z,0
2018-07-06T02:04:14.700Z,0
2018-07-06T02:05:15.248Z,0
2018-07-06T02:06:15.806Z,0
2018-07-06T02:07:16.359Z,0
2018-07-06T02:08:16.913Z,0
2018-07-06T02:09:17.468Z,0
2018-07-06T02:10:18.018Z,0
2018-07-06T02:11:18.574Z,0
2018-07-06T02:12:19.128Z,0
2018-07-06T02:13:19.672Z,0
2018-07-06T02:14:20.222Z,0
2018-07-06T02:15:20.774Z,0
2018-07-06T02:16:21.322Z,0
2018-07-06T02:17:21.875Z,0
2018-07-06T02:18:22.430Z,0
2018-07-06T02:19:22.990Z,0
2018-07-06T02:20:23.544Z,0
2018-07-06T02:21:24.096Z,0
2018-07-06T02:22:24.646Z,0
2018-07-06T02:23:25.202Z,0
2018-07-06T02:24:25.748Z,0
2018-07-06T02:25:26.293Z,0
2018-07-06T02:26:26.841Z,0
2018-07-06T02:27:27.396Z,0
2018-07-06T02:28:27.940Z,0
2018-07-06T02:29:28.494Z,0
2018-07-06T02:30:29.046Z,0
2018-07-06T02:31:29.601Z,0
2018-07-06T02:32:30.164Z,0
2018-07-06T02:33:30.705Z,0
2018-07-06T02:34:31.258Z,0
2018-07-06T02:35:31.817Z,0
2018-07-06T02:36:32.361Z,0
2018-07-06T02:37:32.913Z,0
2018-07-06T02:38:33.460Z,0
2018-07-06T02:39:34.018Z,0
2018-07-06T02:40:34.569Z,0
2018-07-06T02:41:35.121Z,4
2018-07-06T02:42:35.682Z,4
2018-07-06T02:43:36.229Z,4
2018-07-06T02:44:36.784Z,0
2018-07-06T02:45:37.341Z,4
2018-07-06T02:46:37.890Z,4
2018-07-06T02:47:38.445Z,4
2018-07-06T02:48:38.998Z,4
2018-07-06T02:49:39.550Z,8
2018-07-06T02:50:40.108Z,4
2018-07-06T02:51:40.662Z,8
2018-07-06T02:52:41.217Z,8
2018-07-06T02:53:41.774Z,8
2018-07-06T02:54:42.329Z,12
2018-07-06T02:55:42.885Z,12
2018-07-06T02:56:43.446Z,16
2018-07-06T02:57:43.995Z,16
2018-07-06T02:58:44.549Z,16
2018-07-06T02:59:45.104Z,20
2018-07-06T03:00:45.657Z,24
2018-07-06T03:01:46.211Z,28
2018-07-06T03:02:46.767Z,32
2018-07-06T03:03:47.321Z,36
2018-07-06T03:04:47.874Z,40
2018-07-06T03:05:48.433Z,44
2018-07-06T03:06:48.978Z,52
2018-07-06T03:07:49.530Z,56
2018-07-06T03:08:50.087Z,64
2018-07-06T03:09:50.646Z,72
2018-07-06T03:10:51.203Z,80
2018-07-06T03:11:51.760Z,92
2018-07-06T03:12:52.341Z,100
2018-07-06T03:13:52.872Z,112
2018-07-06T03:14:53.430Z,124
2018-07-06T03:15:53.978Z,136
2018-07-06T03:16:54.534Z,152
2018-07-06T03:17:55.090Z,168
2018-07-06T03:18:55.645Z,184
2018-07-06T03:19:56.201Z,200
2018-07-06T03:20:56.756Z,220
2018-07-06T03:21:57.312Z,240
2018-07-06T03:22:57.868Z,264
2018-07-06T03:23:58.421Z,284
2018-07-06T03:24:58.980Z,308
2018-07-06T03:25:59.539Z,336
2018-07-06T03:27:00.105Z,360
2018-07-06T03:28:00.710Z,388
2018-07-06T03:29:01.194Z,416
2018-07-06T03:30:01.760Z,448
2018-07-06T03:31:02.318Z,480
2018-07-06T03:32:02.876Z,512
2018-07-06T03:33:03.431Z,548
2018-07-06T03:34:03.988Z,588
2018-07-06T03:35:04.551Z,628
2018-07-06T03:36:05.103Z,668
2018-07-06T03:37:05.657Z,708
2018-07-06T03:38:06.208Z,752
2018-07-06T03:39:06.768Z,796
2018-07-06T03:40:07.328Z,840
2018-07-06T03:41:07.883Z,884
2018-07-06T03:42:08.441Z,932
2018-07-06T03:43:08.996Z,976
2018-07-06T03:44:09.549Z,1024
2018-07-06T03:45:10.110Z,1072
2018-07-06T03:46:10.666Z,1124
2018-07-06T03:47:11.227Z,1176
2018-07-06T03:48:11.882Z,1224
2018-07-06T03:49:12.329Z,1272
2018-07-06T03:50:12.890Z,1316
2018-07-06T03:51:13.448Z,1364
2018-07-06T03:52:14.007Z,1408
2018-07-06T03:53:14.557Z,1456
2018-07-06T03:54:15.117Z,1504
2018-07-06T03:55:15.676Z,1560
2018-07-06T03:56:16.228Z,1616
2018-07-06T03:57:16.782Z,1676
2018-07-06T03:58:17.337Z,1732
2018-07-06T03:59:17.895Z,1804
2018-07-06T04:00:18.458Z,1892
2018-07-06T04:01:19.010Z,1968
2018-07-06T04:02:19.574Z,2032
2018-07-06T04:03:20.135Z,2104
2018-07-06T04:04:20.699Z,2160
2018-07-06T04:05:21.259Z,2220
2018-07-06T04:06:21.816Z,2272
2018-07-06T04:07:22.368Z,2336
2018-07-06T04:08:22.926Z,2404
2018-07-06T04:09:23.489Z,2480
2018-07-06T04:10:24.048Z,2548
2018-07-06T04:11:24.609Z,2628
2018-07-06T04:12:25.166Z,2708
2018-07-06T04:13:25.727Z,2788
2018-07-06T04:14:26.284Z,2864
2018-07-06T04:15:26.845Z,2940
2018-07-06T04:16:27.404Z,3016
2018-07-06T04:17:27.955Z,3092
2018-07-06T04:18:28.507Z,3156
2018-07-06T04:19:29.075Z,3224
2018-07-06T04:20:29.638Z,3304
2018-07-06T04:21:30.193Z,3372
2018-07-06T04:22:30.776Z,3444
2018-07-06T04:23:31.328Z,3512
2018-07-06T04:24:31.884Z,3580
2018-07-06T04:25:32.450Z,3644
2018-07-06T04:26:33.078Z,3708
2018-07-06T04:27:33.562Z,3776
2018-07-06T04:28:34.114Z,3860
2018-07-06T04:29:34.675Z,3952
2018-07-06T04:30:35.236Z,4052
2018-07-06T04:31:35.799Z,4164
2018-07-06T04:32:36.359Z,4276
2018-07-06T04:33:36.922Z,4364
2018-07-06T04:34:37.482Z,4456
2018-07-06T04:35:38.043Z,4572
2018-07-06T04:36:38.606Z,4684
2018-07-06T04:37:39.164Z,4808
2018-07-06T04:38:39.724Z,4944
2018-07-06T04:39:40.283Z,5072
2018-07-06T04:40:40.845Z,5152
2018-07-06T04:41:41.406Z,5320
2018-07-06T04:42:41.973Z,5692
2018-07-06T04:43:42.539Z,6336
2018-07-06T04:44:43.096Z,6580
2018-07-06T04:45:43.654Z,6632
2018-07-06T04:46:44.205Z,6892
2018-07-06T04:47:44.761Z,7524
2018-07-06T04:48:45.318Z,8180
2018-07-06T04:49:45.885Z,8168
2018-07-06T04:50:46.448Z,7420
2018-07-06T04:51:47.007Z,7108
2018-07-06T04:52:47.563Z,6988
2018-07-06T04:53:48.123Z,6856
2018-07-06T04:54:48.682Z,6952
2018-07-06T04:55:49.243Z,7128
2018-07-06T04:56:49.817Z,7440
2018-07-06T04:57:50.382Z,7276
2018-07-06T04:58:50.944Z,6804
2018-07-06T04:59:51.547Z,6692
2018-07-06T05:00:52.064Z,7104
2018-07-06T05:01:52.621Z,8056
2018-07-06T05:02:53.179Z,8708
2018-07-06T05:03:53.728Z,8640
2018-07-06T05:04:54.287Z,8604
2018-07-06T05:05:54.850Z,8784
2018-07-06T05:06:55.412Z,7888
2018-07-06T05:07:55.972Z,8332
2018-07-06T05:08:56.525Z,9220
2018-07-06T05:09:57.090Z,10164
2018-07-06T05:10:57.656Z,11164
2018-07-06T05:11:58.219Z,11224
2018-07-06T05:12:58.778Z,10532
2018-07-06T05:13:59.341Z,14336
2018-07-06T05:14:59.902Z,11360
2018-07-06T05:16:00.468Z,11312
2018-07-06T05:17:01.068Z,11548
2018-07-06T05:18:01.598Z,12692
2018-07-06T05:19:02.163Z,12560
2018-07-06T05:20:02.725Z,13156
2018-07-06T05:21:03.288Z,13420
2018-07-06T05:22:03.853Z,13056
2018-07-06T05:23:04.418Z,12536
2018-07-06T05:24:04.985Z,11944
2018-07-06T05:25:05.548Z,11200
2018-07-06T05:26:06.116Z,10388
2018-07-06T05:27:06.693Z,10208
2018-07-06T05:28:07.240Z,9444
2018-07-06T05:29:07.802Z,8804
2018-07-06T05:30:08.366Z,9048
2018-07-06T05:31:08.927Z,9444
2018-07-06T05:32:09.486Z,9720
2018-07-06T05:33:10.047Z,9300
2018-07-06T05:34:10.608Z,8800
2018-07-06T05:35:11.171Z,7640
2018-07-06T05:36:11.734Z,6608
2018-07-06T05:37:12.293Z,6360
2018-07-06T05:38:12.850Z,6664
2018-07-06T05:39:13.416Z,6968
2018-07-06T05:40:13.976Z,7316
2018-07-06T05:41:14.538Z,8440
2018-07-06T05:42:15.105Z,8916
2018-07-06T05:43:15.667Z,8264
2018-07-06T05:44:16.233Z,7612
2018-07-06T05:45:16.793Z,8136
2018-07-06T05:46:17.399Z,9772
2018-07-06T05:47:17.924Z,10412
2018-07-06T05:48:18.470Z,9944
2018-07-06T05:49:19.033Z,9648
2018-07-06T05:50:19.596Z,9756
2018-07-06T05:51:20.161Z,10952
2018-07-06T05:52:20.722Z,11720
2018-07-06T05:53:21.284Z,10192
2018-07-06T05:54:21.852Z,9072
2018-07-06T05:55:22.407Z,9220
2018-07-06T05:56:22.975Z,11020
2018-07-06T05:57:23.534Z,11188
2018-07-06T05:58:24.098Z,10484
2018-07-06T05:59:24.663Z,10428
2018-07-06T06:00:25.227Z,10216
2018-07-06T06:01:25.781Z,9904
2018-07-06T06:02:26.344Z,11436
2018-07-06T06:03:26.909Z,13136
2018-07-06T06:04:27.469Z,11912
2018-07-06T06:05:28.256Z,10460
2018-07-06T06:06:28.820Z,9724
2018-07-06T06:07:29.376Z,9348
2018-07-06T06:08:29.937Z,8856
2018-07-06T06:09:30.498Z,8332
2018-07-06T06:10:31.049Z,8252
2018-07-06T06:11:31.615Z,8568
2018-07-06T06:12:32.175Z,8648
2018-07-06T06:13:32.738Z,8676
2018-07-06T06:14:33.299Z,8408
2018-07-06T06:15:33.861Z,8708
2018-07-06T06:16:34.424Z,9516
2018-07-06T06:17:34.986Z,9372
2018-07-06T06:18:35.585Z,9036
2018-07-06T06:19:36.118Z,9256
2018-07-06T06:20:36.676Z,9192
2018-07-06T06:21:37.238Z,9276
2018-07-06T06:22:37.804Z,9784
2018-07-06T06:23:38.356Z,9992
2018-07-06T06:24:38.921Z,10428
2018-07-06T06:25:39.514Z,10964
2018-07-06T06:26:40.047Z,10852
2018-07-06T06:27:40.611Z,10856
2018-07-06T06:28:41.173Z,10856
2018-07-06T06:29:41.743Z,11456
2018-07-06T06:30:42.310Z,12376
2018-07-06T06:31:42.889Z,12512
2018-07-06T06:32:43.439Z,11696
2018-07-06T06:33:44.068Z,10880
2018-07-06T06:34:44.607Z,10584
2018-07-06T06:35:45.173Z,10716
2018-07-06T06:36:45.743Z,10400
2018-07-06T06:37:46.302Z,11112
2018-07-06T06:38:46.870Z,11952
2018-07-06T06:39:47.433Z,13000
2018-07-06T06:40:48.050Z,14176
2018-07-06T06:41:48.609Z,15268
2018-07-06T06:42:49.172Z,15848
2018-07-06T06:43:49.741Z,17052
2018-07-06T06:44:50.350Z,17712
2018-07-06T06:45:50.869Z,18060
2018-07-06T06:46:51.434Z,18492
2018-07-06T06:47:51.998Z,18180
2018-07-06T06:48:52.567Z,17156
2018-07-06T06:49:53.124Z,15844
2018-07-06T06:50:53.691Z,14436
2018-07-06T06:51:54.257Z,14492
2018-07-06T06:52:54.842Z,15148
2018-07-06T06:53:55.382Z,15956
2018-07-06T06:54:55.944Z,15924
2018-07-06T06:55:56.571Z,15768
2018-07-06T06:56:57.161Z,15956
2018-07-06T06:57:57.708Z,16596
2018-07-06T06:58:58.355Z,17056
2018-07-06T06:59:58.925Z,17200
2018-07-06T07:00:59.558Z,17460
2018-07-06T07:02:00.057Z,18420
2018-07-06T07:03:00.622Z,18176
2018-07-06T07:04:01.185Z,18436
2018-07-06T07:05:01.764Z,20448
2018-07-06T07:06:02.320Z,22752
2018-07-06T07:07:02.888Z,24224
2018-07-06T07:08:03.453Z,22400
2018-07-06T07:09:04.025Z,21408
2018-07-06T07:10:04.617Z,23232
2018-07-06T07:11:05.168Z,29216
2018-07-06T07:12:05.724Z,52256
2018-07-06T07:13:06.312Z,57568
2018-07-06T07:14:06.884Z,59904
2018-07-06T07:15:07.448Z,62624
2018-07-06T07:16:08.031Z,65536
2018-07-06T07:17:08.654Z,63488
2018-07-06T07:18:09.222Z,43296
2018-07-06T07:19:09.785Z,33472
2018-07-06T07:20:10.360Z,30528
2018-07-06T07:21:10.928Z,29760
2018-07-06T07:22:11.499Z,24896
2018-07-06T07:23:12.070Z,23456
2018-07-06T07:24:12.633Z,22592
2018-07-06T07:25:13.211Z,20320
2018-07-06T07:26:13.781Z,18080
2018-07-06T07:27:14.343Z,16116
2018-07-06T07:28:14.901Z,14820
2018-07-06T07:29:15.464Z,14320
2018-07-06T07:30:16.134Z,15392
2018-07-06T07:31:16.601Z,17136
2018-07-06T07:32:17.170Z,18880
2018-07-06T07:33:17.739Z,18784
2018-07-06T07:34:18.310Z,19136
2018-07-06T07:35:18.879Z,20096
2018-07-06T07:36:19.439Z,21600
2018-07-06T07:37:20.023Z,24160
2018-07-06T07:38:20.603Z,24576
2018-07-06T07:39:21.201Z,25280
2018-07-06T07:40:21.768Z,24544
2018-07-06T07:41:22.323Z,22752
2018-07-06T07:42:22.894Z,21152
2018-07-06T07:43:23.460Z,21216
2018-07-06T07:44:24.023Z,22368
2018-07-06T07:45:24.587Z,24288
2018-07-06T07:46:25.157Z,26624
2018-07-06T07:47:25.720Z,28288
2018-07-06T07:48:26.284Z,30912
2018-07-06T07:49:26.850Z,36096
2018-07-06T07:50:27.437Z,31520
2018-07-06T07:51:27.999Z,29824
2018-07-06T07:52:28.571Z,27392
2018-07-06T07:53:29.138Z,26336
2018-07-06T07:54:29.769Z,27296
2018-07-06T07:55:30.343Z,29440
2018-07-06T07:56:30.897Z,31104
2018-07-06T07:57:31.468Z,29280
2018-07-06T07:58:32.036Z,29152
2018-07-06T07:59:32.662Z,30592
2018-07-06T08:00:33.301Z,30048
2018-07-06T08:01:33.825Z,27520
2018-07-06T08:02:34.360Z,27232
2018-07-06T08:03:34.928Z,28192
2018-07-06T08:04:35.513Z,32704
2018-07-06T08:05:36.080Z,74592
2018-07-06T08:06:36.673Z,54080
2018-07-06T08:07:37.224Z,23488
2018-07-06T08:08:37.791Z,23488
2018-07-06T08:09:38.370Z,24704
2018-07-06T08:10:38.943Z,23104
2018-07-06T08:11:39.524Z,22016
2018-07-06T08:12:40.076Z,23360
2018-07-06T08:13:40.776Z,24448
2018-07-06T08:14:41.489Z,23520
2018-07-06T08:15:42.055Z,23840
2018-07-06T08:16:42.615Z,25568
2018-07-06T08:17:43.197Z,25312
2018-07-06T08:18:43.759Z,24000
2018-07-06T08:19:44.320Z,25344
2018-07-06T08:20:44.906Z,28512
2018-07-06T08:21:45.463Z,31424
2018-07-06T08:22:46.026Z,33248
2018-07-06T08:23:46.595Z,31936
2018-07-06T08:24:47.164Z,36192
2018-07-06T08:25:47.776Z,42848
2018-07-06T08:26:48.310Z,81024
2018-07-06T08:27:48.881Z,40480
2018-07-06T08:28:49.451Z,36864
2018-07-06T08:29:50.024Z,40736
2018-07-06T08:30:50.601Z,80736
2018-07-06T08:31:52.157Z,37696
2018-07-06T08:32:52.735Z,34176
2018-07-06T08:33:53.318Z,35264
2018-07-06T08:34:53.901Z,36352
2018-07-06T08:35:54.475Z,40128
2018-07-06T08:36:55.046Z,78432
2018-07-06T08:37:55.635Z,33184
2018-07-06T08:38:56.192Z,30272
2018-07-06T08:39:56.834Z,40096
2018-07-06T08:40:57.338Z,73536
2018-07-06T08:41:57.916Z,73792
2018-07-06T08:42:58.490Z,62592
2018-07-06T08:43:59.073Z,73888
2018-07-06T08:44:59.675Z,40128
2018-07-06T08:46:00.280Z,33408
2018-07-06T08:47:00.848Z,34784
2018-07-06T08:48:01.446Z,46112
2018-07-06T08:49:02.316Z,56224
2018-07-06T08:50:02.830Z,52960
2018-07-06T08:51:03.443Z,41472
2018-07-06T08:52:03.995Z,86464
2018-07-06T08:53:04.860Z,47200
2018-07-06T08:54:05.475Z,34528
2018-07-06T08:55:06.091Z,31840
2018-07-06T08:56:06.770Z,86912
2018-07-06T08:57:07.333Z,41408
2018-07-06T08:58:07.949Z,85376
2018-07-06T08:59:08.586Z,79168
2018-07-06T09:00:09.271Z,93920
2018-07-06T09:01:09.833Z,90848
2018-07-06T09:02:10.409Z,65152
2018-07-06T09:03:10.984Z,88480
2018-07-06T09:04:11.623Z,69792
2018-07-06T09:05:12.197Z,37216
2018-07-06T09:06:12.773Z,90592
2018-07-06T09:07:13.350Z,37088
2018-07-06T09:08:13.988Z,44160
2018-07-06T09:09:14.712Z,81760
2018-07-06T09:10:15.137Z,78496
2018-07-06T09:11:15.750Z,90528
2018-07-06T09:12:16.572Z,91936
2018-07-06T09:13:17.143Z,94080
2018-07-06T09:14:17.725Z,90784
2018-07-06T09:15:18.295Z,88896
2018-07-06T09:16:18.935Z,86848
2018-07-06T09:17:19.445Z,86784
2018-07-06T09:18:20.022Z,88928
2018-07-06T09:19:20.684Z,91488
2018-07-06T09:20:21.184Z,92320
2018-07-06T09:21:21.770Z,89984
2018-07-06T09:22:22.391Z,83232
2018-07-06T09:23:23.110Z,79584
2018-07-06T09:24:23.780Z,77984
2018-07-06T09:25:24.370Z,79200
2018-07-06T09:26:24.946Z,79648
2018-07-06T09:27:25.519Z,81280
2018-07-06T09:28:26.102Z,83200
2018-07-06T09:29:26.686Z,85728
2018-07-06T09:30:27.268Z,70048
2018-07-06T09:31:27.847Z,89952
2018-07-06T09:32:28.419Z,90496
2018-07-06T09:33:28.989Z,85920
2018-07-06T09:34:29.575Z,82688
2018-07-06T09:35:30.169Z,86656
2018-07-06T09:36:30.752Z,94336
2018-07-06T09:37:31.340Z,100000
2018-07-06T09:38:31.929Z,104512
2018-07-06T09:39:32.525Z,105696
2018-07-06T09:40:33.102Z,99488
2018-07-06T09:41:33.697Z,96128
2018-07-06T09:42:34.357Z,89824
2018-07-06T09:43:34.977Z,85312
2018-07-06T09:44:35.559Z,77312
2018-07-06T09:45:36.130Z,49216
2018-07-06T09:46:36.724Z,34304
2018-07-06T09:47:37.319Z,98944
2018-07-06T09:48:37.902Z,91840
2018-07-06T09:49:38.487Z,98912
2018-07-06T09:50:39.052Z,99232
2018-07-06T09:51:39.620Z,94336
2018-07-06T09:52:40.199Z,95104
2018-07-06T09:53:40.795Z,94752
2018-07-06T09:54:41.375Z,90912
2018-07-06T09:55:41.952Z,89984
2018-07-06T09:56:42.553Z,97888
2018-07-06T09:57:43.132Z,100448
2018-07-06T09:58:43.716Z,99008
2018-07-06T09:59:44.296Z,94304
2018-07-06T10:00:44.883Z,91040
2018-07-06T10:01:45.457Z,86720
2018-07-06T10:02:46.069Z,89152
2018-07-06T10:03:46.843Z,88576
2018-07-06T10:04:47.446Z,88320
2018-07-06T10:05:48.082Z,89632
2018-07-06T10:06:48.647Z,100416
2018-07-06T10:07:49.220Z,98624
2018-07-06T10:08:49.802Z,93760
2018-07-06T10:09:50.451Z,70080
2018-07-06T10:10:51.027Z,94688
2018-07-06T10:11:51.662Z,89856
2018-07-06T10:12:52.235Z,91104
2018-07-06T10:13:52.867Z,95744
2018-07-06T10:14:53.432Z,101568
2018-07-06T10:15:54.008Z,92224
2018-07-06T10:16:54.594Z,96960
2018-07-06T10:17:55.180Z,92544
2018-07-06T10:18:55.757Z,89504
2018-07-06T10:19:56.365Z,88480
2018-07-06T10:20:56.914Z,85536
2018-07-06T10:21:57.582Z,85632
2018-07-06T10:22:58.102Z,78784
2018-07-06T10:23:58.679Z,96608
2018-07-06T10:24:59.259Z,97216
2018-07-06T10:25:59.844Z,98336
2018-07-06T10:27:00.418Z,98624
2018-07-06T10:28:00.991Z,98624
2018-07-06T10:29:01.578Z,98176
2018-07-06T10:30:02.158Z,100800
2018-07-06T10:31:02.738Z,105376
2018-07-06T10:32:03.307Z,104448
2018-07-06T10:33:03.986Z,99392
2018-07-06T10:34:04.456Z,99968
2018-07-06T10:35:05.034Z,96608
2018-07-06T10:36:05.623Z,93536
2018-07-06T10:37:06.268Z,95968
2018-07-06T10:38:06.847Z,97920
2018-07-06T10:39:07.419Z,98880
2018-07-06T10:40:08.021Z,96640
2018-07-06T10:41:08.580Z,52896
2018-07-06T10:42:09.157Z,95552
2018-07-06T10:43:09.734Z,98592
2018-07-06T10:44:10.306Z,96160
2018-07-06T10:45:10.886Z,98432
2018-07-06T10:46:11.508Z,100320
2018-07-06T10:47:12.086Z,104064
2018-07-06T10:48:12.659Z,104064
2018-07-06T10:49:13.247Z,104384
2018-07-06T10:50:13.833Z,103264
2018-07-06T10:51:14.411Z,101184
2018-07-06T10:52:14.993Z,98656
2018-07-06T10:53:15.571Z,99424
2018-07-06T10:54:16.191Z,97376
2018-07-06T10:55:16.784Z,99776
2018-07-06T10:56:17.370Z,100672
2018-07-06T10:57:17.961Z,100416
2018-07-06T10:58:18.536Z,99488
2018-07-06T10:59:19.150Z,99872
2018-07-06T11:00:19.690Z,95776
2018-07-06T11:01:20.270Z,98272
2018-07-06T11:02:20.864Z,99200
2018-07-06T11:03:21.449Z,102304
2018-07-06T11:04:22.039Z,101504
2018-07-06T11:05:22.667Z,100416
2018-07-06T11:06:23.246Z,97600
2018-07-06T11:07:23.838Z,95072
2018-07-06T11:08:24.411Z,97984
2018-07-06T11:09:24.990Z,99968
2018-07-06T11:10:25.566Z,100896
2018-07-06T11:11:26.245Z,102624
2018-07-06T11:12:26.778Z,103424
2018-07-06T11:13:27.357Z,101728
2018-07-06T11:14:27.931Z,96960
2018-07-06T11:15:28.517Z,96448
2018-07-06T11:16:29.093Z,96992
2018-07-06T11:17:29.673Z,97600
2018-07-06T11:18:30.256Z,98624
2018-07-06T11:19:30.843Z,100096
2018-07-06T11:20:31.417Z,100224
2018-07-06T11:21:31.992Z,101664
2018-07-06T11:22:32.569Z,102304
2018-07-06T11:23:33.160Z,102016
2018-07-06T11:24:33.746Z,101728
2018-07-06T11:25:34.322Z,99232
2018-07-06T11:26:34.944Z,97632
2018-07-06T11:27:35.521Z,96320
2018-07-06T11:28:36.101Z,95808
2018-07-06T11:29:36.680Z,94368
2018-07-06T11:30:37.254Z,98208
2018-07-06T11:31:37.828Z,102560
2018-07-06T11:32:38.403Z,98848
2018-07-06T11:33:39.010Z,100480
2018-07-06T11:34:39.561Z,100288
2018-07-06T11:35:40.150Z,99712
2018-07-06T11:36:40.727Z,99680
2018-07-06T11:37:41.317Z,102464
2018-07-06T11:38:41.911Z,103008
2018-07-06T11:39:42.534Z,104160
2018-07-06T11:40:43.081Z,105376
2018-07-06T11:41:43.667Z,107488
2018-07-06T11:42:44.236Z,106464
2018-07-06T11:43:44.823Z,106464
2018-07-06T11:44:45.420Z,101664
2018-07-06T11:45:45.982Z,99200
2018-07-06T11:46:46.566Z,102816
2018-07-06T11:47:47.140Z,106144
2018-07-06T11:48:47.721Z,108512
2018-07-06T11:49:48.318Z,108256
2018-07-06T11:50:48.891Z,108032
2018-07-06T11:51:49.507Z,106240
2018-07-06T11:52:50.086Z,103808
2018-07-06T11:53:50.652Z,100512
2018-07-06T11:54:51.233Z,99232
2018-07-06T11:55:51.836Z,98336
2018-07-06T11:56:52.400Z,99808
2018-07-06T11:57:52.976Z,103648
2018-07-06T11:58:53.556Z,105024
2018-07-06T11:59:54.129Z,103552
2018-07-06T12:00:54.708Z,100736
2018-07-06T12:01:55.405Z,101184
2018-07-06T12:02:55.888Z,101984
2018-07-06T12:03:56.527Z,105664
2018-07-06T12:04:57.036Z,103808
2018-07-06T12:05:57.607Z,98944
2018-07-06T12:06:58.209Z,101760
2018-07-06T12:07:58.767Z,98656
2018-07-06T12:08:59.342Z,99456
2018-07-06T12:09:59.922Z,108448
2018-07-06T12:11:00.584Z,111040
2018-07-06T12:12:01.163Z,107808
2018-07-06T12:13:01.755Z,107200
2018-07-06T12:14:02.323Z,102816
2018-07-06T12:15:02.905Z,88096
2018-07-06T12:16:03.493Z,55648
2018-07-06T12:17:04.061Z,58912
2018-07-06T12:18:04.652Z,100768
2018-07-06T12:19:05.223Z,89120
2018-07-06T12:20:05.810Z,95456
2018-07-06T12:21:06.473Z,91840
2018-07-06T12:22:06.970Z,89760
2018-07-06T12:23:07.582Z,89408
2018-07-06T12:24:08.133Z,92416
2018-07-06T12:25:08.712Z,96768
2018-07-06T12:26:09.294Z,100640
2018-07-06T12:27:09.871Z,103392
2018-07-06T12:28:10.443Z,102016
2018-07-06T12:29:11.137Z,101088
2018-07-06T12:30:11.592Z,96736
2018-07-06T12:31:12.167Z,98528
2018-07-06T12:32:12.744Z,102208
2018-07-06T12:33:13.323Z,79776
2018-07-06T12:34:13.942Z,39232
2018-07-06T12:35:14.490Z,40864
2018-07-06T12:36:15.054Z,104576
2018-07-06T12:37:15.633Z,102528
2018-07-06T12:38:16.210Z,108736
2018-07-06T12:39:16.791Z,112224
2018-07-06T12:40:17.368Z,115232
2018-07-06T12:41:18.057Z,112384
2018-07-06T12:42:18.516Z,116256
2018-07-06T12:43:19.096Z,106144
2018-07-06T12:44:19.682Z,73440
2018-07-06T12:45:20.248Z,99712
2018-07-06T12:46:20.825Z,101984
2018-07-06T12:47:21.414Z,104768
2018-07-06T12:48:22.049Z,104448
2018-07-06T12:49:22.631Z,115488
2018-07-06T12:50:23.214Z,108224
2018-07-06T12:51:23.794Z,70496
2018-07-06T12:52:24.372Z,106240
2018-07-06T12:53:24.956Z,95008
2018-07-06T12:54:25.545Z,100544
2018-07-06T12:55:26.121Z,102240
2018-07-06T12:56:26.700Z,96704
2018-07-06T12:57:27.277Z,61856
2018-07-06T12:58:27.909Z,89056
2018-07-06T12:59:28.419Z,105600
2018-07-06T13:00:29.004Z,95264
2018-07-06T13:01:29.596Z,81856
2018-07-06T13:02:30.161Z,72416
2018-07-06T13:03:30.738Z,44992
2018-07-06T13:04:31.312Z,32032
2018-07-06T13:05:31.899Z,29888
2018-07-06T13:06:32.474Z,27104
2018-07-06T13:07:33.046Z,25568
2018-07-06T13:08:33.611Z,25600
2018-07-06T13:09:34.186Z,27360
2018-07-06T13:10:34.803Z,31584
2018-07-06T13:11:35.325Z,30112
2018-07-06T13:12:35.898Z,29632
2018-07-06T13:13:36.501Z,27456
2018-07-06T13:14:37.055Z,28160
2018-07-06T13:15:37.632Z,86752
2018-07-06T13:16:38.209Z,41472
2018-07-06T13:17:38.797Z,99360
2018-07-06T13:18:39.373Z,93728
2018-07-06T13:19:39.952Z,91936
2018-07-06T13:20:40.533Z,79712
2018-07-06T13:21:41.131Z,90176
2018-07-06T13:22:41.747Z,99296
2018-07-06T13:23:42.324Z,102400
2018-07-06T13:24:42.915Z,55008
2018-07-06T13:25:43.522Z,39104
2018-07-06T13:26:44.133Z,43392
2018-07-06T13:27:44.712Z,97792